Time;durP1;ratioP1;P1;durP2;ratioP2;P2;SDS_P1;SDS_P2;PMS_P1;PMS_P2;Temp;Humidity;BMP_temperature;BMP_pressure;BME280_temperature;BME280_humidity;BME280_pressure;Samples;Min_cycle;Max_cycle;Signal;HPM_P1;HPM_P2
2023/04/15 00:00:07;;;;;;;;;;;;;;;7.11;75.39;94464.06;5095891;28;1029;-53
2023/04/15 00:02:32;;;;;;;;;;;;;;;7.14;75.07;94464.59;5095655;28;1055;-54
2023/04/15 00:04:58;;;;;;;;;;;;;;;6.97;76.17;94470.81;5095440;28;1057;-53
2023/04/15 00:07:24;;;;;;;;;;;;;;;7.19;76.38;94472.09;5095473;28;1037;-54
2023/04/15 00:09:53;;;;;;;;;;;;;;;7.16;76.01;94469.75;5095523;28;1219;-53
2023/04/15 00:12:20;;;;;;;;;;;;;;;7.20;75.72;94476.44;5101836;28;1786;-54
2023/04/15 00:14:46;;;;;;;;;;;;;;;7.10;76.45;94473.88;5115387;28;1028;-54
2023/04/15 00:17:12;;;;;;;;;;;;;;;7.19;75.91;94483.59;5115622;28;1905;-54
2023/04/15 00:19:39;;;;;;;;;;;;;;;7.18;77.19;94478.41;5115751;28;1017;-54
2023/04/15 00:22:05;;;;;;;;;;;;;;;7.05;76.46;94486.78;5115831;28;1016;-54
2023/04/15 00:24:31;;;;;;;;;;;;;;;7.19;76.57;94483.59;5115501;28;1138;-54
2023/04/15 00:26:57;;;;;;;;;;;;;;;7.02;75.75;94484.47;5115384;28;1100;-54
2023/04/15 00:29:24;;;;;;;;;;;;;;;6.81;76.78;94480.31;5115335;28;1096;-54
2023/04/15 00:31:50;;;;;;;;;;;;;;;6.94;77.06;94492.38;5115598;28;1136;-53
2023/04/15 00:34:16;;;;;;;;;;;;;;;6.86;77.11;94487.00;5115429;28;1051;-54
2023/04/15 00:36:42;;;;;;;;;;;;;;;6.75;76.79;94493.38;5115207;28;1909;-53
2023/04/15 00:39:08;;;;;;;;;;;;;;;6.82;77.15;94487.28;5115541;28;965;-53
2023/04/15 00:41:38;;;;;;;;;;;;;;;6.69;76.74;94486.03;5105118;28;1604;-54
2023/04/15 00:44:05;;;;;;;;;;;;;;;6.34;77.98;94480.59;5093512;28;1159;-54
2023/04/15 00:46:32;;;;;;;;;;;;;;;6.49;77.98;94480.91;5094675;28;969;-54
2023/04/15 00:48:59;;;;;;;;;;;;;;;6.49;77.62;94488.00;5094752;28;1029;-54
2023/04/15 00:51:25;;;;;;;;;;;;;;;6.50;77.34;94487.03;5094886;28;1060;-54
2023/04/15 00:53:51;;;;;;;;;;;;;;;6.59;77.67;94494.09;5094604;28;999;-52
2023/04/15 00:56:19;;;;;;;;;;;;;;;6.19;76.21;94488.25;5094301;28;1963;-54
2023/04/15 00:58:45;;;;;;;;;;;;;;;6.00;77.42;94491.03;5094834;28;1070;-52
2023/04/15 01:01:10;;;;;;;;;;;;;;;6.18;77.21;94488.38;5094314;28;1902;-54
2023/04/15 01:03:36;;;;;;;;;;;;;;;6.38;77.60;94487.25;5094394;28;1041;-53
2023/04/15 01:06:03;;;;;;;;;;;;;;;6.33;76.35;94481.56;5094293;28;1108;-54
2023/04/15 01:08:29;;;;;;;;;;;;;;;6.10;77.06;94490.97;5094202;28;1024;-54
2023/04/15 01:10:56;;;;;;;;;;;;;;;6.24;76.86;94487.78;5094153;28;1029;-54
2023/04/15 01:13:22;;;;;;;;;;;;;;;6.03;77.66;94496.88;5094451;28;1041;-54
2023/04/15 01:15:49;;;;;;;;;;;;;;;6.01;77.87;94500.66;5094170;28;1988;-54
2023/04/15 01:18:15;;;;;;;;;;;;;;;6.28;77.86;94497.13;5094382;28;1031;-54
2023/04/15 01:20:41;;;;;;;;;;;;;;;6.39;76.68;94486.28;5094027;28;1575;-53
2023/04/15 01:23:07;;;;;;;;;;;;;;;6.04;76.77;94484.44;5093966;28;1090;-53
2023/04/15 01:25:33;;;;;;;;;;;;;;;6.04;77.56;94487.91;5093724;28;1117;-54
2023/04/15 01:27:59;;;;;;;;;;;;;;;6.20;78.16;94489.91;5093920;28;1041;-53
2023/04/15 01:30:26;;;;;;;;;;;;;;;5.98;76.96;94491.19;5093754;28;1095;-54
2023/04/15 01:32:52;;;;;;;;;;;;;;;5.91;77.91;94482.09;5094062;28;957;-54
2023/04/15 01:35:18;;;;;;;;;;;;;;;5.76;77.89;94481.75;5093826;28;1914;-54
2023/04/15 01:37:45;;;;;;;;;;;;;;;5.91;78.05;94482.09;5094048;28;1048;-53
2023/04/15 01:40:11;;;;;;;;;;;;;;;6.00;78.01;94481.25;5093596;28;1040;-54
2023/04/15 01:42:37;;;;;;;;;;;;;;;5.99;76.96;94479.56;5093614;28;1538;-54
2023/04/15 01:45:03;;;;;;;;;;;;;;;5.89;77.74;94480.59;5093443;28;1147;-54
2023/04/15 01:47:29;;;;;;;;;;;;;;;5.95;78.42;94475.53;5093550;28;1111;-53
2023/04/15 01:49:55;;;;;;;;;;;;;;;5.86;77.77;94479.91;5093549;28;1049;-54
2023/04/15 01:52:21;;;;;;;;;;;;;;;5.93;77.93;94484.63;5093586;28;981;-54
2023/04/15 01:54:47;;;;;;;;;;;;;;;5.98;78.37;94483.22;5093298;28;972;-54
2023/04/15 01:57:13;;;;;;;;;;;;;;;5.54;78.64;94483.00;5093566;28;1985;-54
2023/04/15 01:59:39;;;;;;;;;;;;;;;5.69;78.55;94491.28;5092104;28;1124;-54
2023/04/15 02:02:05;;;;;;;;;;;;;;;5.90;78.06;94484.91;5093479;28;975;-53
2023/04/15 02:04:33;;;;;;;;;;;;;;;5.99;77.83;94484.03;5093361;28;1193;-54
2023/04/15 02:06:59;;;;;;;;;;;;;;;5.41;77.55;94479.84;5093368;28;1096;-54
2023/04/15 02:09:25;;;;;;;;;;;;;;;5.39;78.44;94482.66;5092317;28;974;-53
2023/04/15 02:11:53;;;;;;;;;;;;;;;5.67;78.29;94480.00;5093500;28;997;-54
2023/04/15 02:14:19;;;;;;;;;;;;;;;5.68;77.89;94476.38;5093441;28;1151;-54
2023/04/15 02:16:45;;;;;;;;;;;;;;;5.57;77.66;94485.34;5093249;28;1968;-53
2023/04/15 02:19:11;;;;;;;;;;;;;;;5.20;79.20;94490.69;5093359;28;1041;-53
2023/04/15 02:21:37;;;;;;;;;;;;;;;5.20;79.89;94491.50;5093220;28;1108;-53
2023/04/15 02:24:03;;;;;;;;;;;;;;;5.19;78.80;94486.34;5093426;28;977;-53
2023/04/15 02:26:31;;;;;;;;;;;;;;;4.85;79.52;94478.91;5093344;28;977;-53
2023/04/15 02:28:57;;;;;;;;;;;;;;;4.68;80.66;94476.00;5093434;28;989;-53
2023/04/15 02:31:23;;;;;;;;;;;;;;;4.92;80.40;94495.91;5093173;28;1013;-53
2023/04/15 02:33:50;;;;;;;;;;;;;;;5.22;79.53;94494.84;5093201;28;1051;-52
2023/04/15 02:36:16;;;;;;;;;;;;;;;5.41;79.06;94504.56;5094301;28;1902;-53
2023/04/15 02:38:42;;;;;;;;;;;;;;;5.20;77.85;94511.88;5097125;28;981;-53
2023/04/15 02:41:09;;;;;;;;;;;;;;;5.14;80.42;94521.25;5097361;28;1538;-53
2023/04/15 02:43:35;;;;;;;;;;;;;;;5.22;82.57;94524.00;5095878;28;1251;-54
2023/04/15 02:46:01;;;;;;;;;;;;;;;5.14;81.43;94523.03;5096942;28;1033;-54
2023/04/15 02:48:27;;;;;;;;;;;;;;;5.20;80.86;94520.66;5096954;28;1048;-54
2023/04/15 02:50:53;;;;;;;;;;;;;;;5.21;81.69;94521.50;5097005;28;1088;-54
2023/04/15 02:53:19;;;;;;;;;;;;;;;5.15;80.78;94530.84;5096787;28;1091;-53
2023/04/15 02:55:45;;;;;;;;;;;;;;;5.28;80.91;94536.66;5097063;28;1910;-53
2023/04/15 02:58:11;;;;;;;;;;;;;;;5.34;81.64;94542.38;5096943;28;1005;-53
2023/04/15 03:00:37;;;;;;;;;;;;;;;5.36;80.02;94541.25;5096700;28;1434;-53
2023/04/15 03:03:04;;;;;;;;;;;;;;;5.12;78.71;94547.03;5096715;28;1041;-53
2023/04/15 03:05:30;;;;;;;;;;;;;;;5.09;79.95;94544.69;5096549;28;1012;-53
2023/04/15 03:07:56;;;;;;;;;;;;;;;5.17;79.63;94538.66;5096920;28;1043;-53
2023/04/15 03:10:22;;;;;;;;;;;;;;;5.17;80.13;94541.31;5096761;28;999;-53
2023/04/15 03:12:48;;;;;;;;;;;;;;;5.12;80.14;94547.03;5096541;28;1101;-53
2023/04/15 03:15:15;;;;;;;;;;;;;;;5.07;79.42;94542.16;5096656;28;965;-53
2023/04/15 03:17:41;;;;;;;;;;;;;;;4.72;79.28;94547.22;5096295;28;1914;-53
2023/04/15 03:20:08;;;;;;;;;;;;;;;4.78;79.67;94554.59;5096374;28;989;-53
2023/04/15 03:22:34;;;;;;;;;;;;;;;4.64;79.67;94553.22;5096527;28;965;-53
2023/04/15 03:25:00;;;;;;;;;;;;;;;4.43;80.49;94554.19;5096282;28;1018;-53
2023/04/15 03:27:26;;;;;;;;;;;;;;;4.39;80.07;94547.50;5096452;28;1036;-52
2023/04/15 03:29:52;;;;;;;;;;;;;;;4.53;79.91;94542.75;5096418;28;1044;-52
2023/04/15 03:32:18;;;;;;;;;;;;;;;4.36;79.43;94550.41;5096202;28;1191;-53
2023/04/15 03:34:44;;;;;;;;;;;;;;;4.23;79.79;94557.78;5096048;28;1100;-52
2023/04/15 03:37:10;;;;;;;;;;;;;;;4.18;79.84;94557.38;5095837;28;1988;-52
2023/04/15 03:39:36;;;;;;;;;;;;;;;3.94;80.04;94553.28;5096035;28;1261;-52
2023/04/15 03:42:02;;;;;;;;;;;;;;;3.67;82.44;94561.81;5096197;28;1603;-52
2023/04/15 03:44:29;;;;;;;;;;;;;;;4.01;81.76;94572.09;5095621;28;1313;-52
2023/04/15 03:46:55;;;;;;;;;;;;;;;4.27;80.90;94562.69;5095811;28;1019;-52
2023/04/15 03:49:22;;;;;;;;;;;;;;;3.89;79.90;94566.91;5095114;28;1029;-52
2023/04/15 03:51:48;;;;;;;;;;;;;;;4.08;80.97;94574.06;5096009;28;1032;-53
2023/04/15 03:54:14;;;;;;;;;;;;;;;4.37;80.43;94560.03;5095954;28;1043;-54
2023/04/15 03:56:40;;;;;;;;;;;;;;;3.87;80.35;94560.06;5095937;28;1993;-53
2023/04/15 03:59:06;;;;;;;;;;;;;;;3.95;81.29;94560.25;5095852;28;933;-53
2023/04/15 04:01:32;;;;;;;;;;;;;;;4.18;81.28;94549.44;5095636;28;1016;-53
2023/04/15 04:03:58;;;;;;;;;;;;;;;4.08;81.11;94560.00;5095562;28;1032;-53
2023/04/15 04:06:25;;;;;;;;;;;;;;;4.37;80.46;94565.34;5095301;28;968;-53
2023/04/15 04:08:51;;;;;;;;;;;;;;;4.48;82.09;94565.19;5095643;28;1036;-54
2023/04/15 04:11:17;;;;;;;;;;;;;;;4.58;79.59;94561.72;5095280;28;1123;-54
2023/04/15 04:13:43;;;;;;;;;;;;;;;4.40;79.65;94567.72;5095181;28;1046;-53
2023/04/15 04:16:08;;;;;;;;;;;;;;;4.39;79.88;94570.50;5095457;28;1914;-54
2023/04/15 04:18:35;;;;;;;;;;;;;;;5.22;77.74;94571.72;5094853;28;1128;-53
2023/04/15 04:21:01;;;;;;;;;;;;;;;5.66;77.14;94566.69;5095280;28;1163;-54
2023/04/15 04:23:27;;;;;;;;;;;;;;;6.55;72.59;94578.56;5094988;28;1096;-54
2023/04/15 04:25:53;;;;;;;;;;;;;;;7.01;69.73;94581.13;5095373;28;970;-54
2023/04/15 04:28:19;;;;;;;;;;;;;;;7.41;68.64;94580.59;5095040;28;1043;-54
2023/04/15 04:30:45;;;;;;;;;;;;;;;8.19;66.00;94597.50;5095018;28;1090;-53
2023/04/15 04:33:11;;;;;;;;;;;;;;;8.57;64.83;94598.84;5095213;28;1256;-53
2023/04/15 04:35:36;;;;;;;;;;;;;;;8.82;62.56;94603.38;5094869;28;1914;-54
2023/04/15 04:38:03;;;;;;;;;;;;;;;8.60;64.05;94603.84;5094812;28;1036;-53
2023/04/15 04:40:29;;;;;;;;;;;;;;;8.86;63.20;94610.06;5094840;28;1543;-54
2023/04/15 04:42:55;;;;;;;;;;;;;;;9.58;61.88;94615.63;5094842;28;1238;-54
2023/04/15 04:45:21;;;;;;;;;;;;;;;9.92;60.57;94574.50;5094698;28;1100;-54
2023/04/15 04:47:47;;;;;;;;;;;;;;;9.74;59.53;94604.91;5093512;28;1085;-54
2023/04/15 04:50:13;;;;;;;;;;;;;;;10.14;59.64;94615.69;5094758;28;969;-53
2023/04/15 04:52:39;;;;;;;;;;;;;;;10.42;59.35;94621.47;5094475;28;1059;-54
2023/04/15 04:55:05;;;;;;;;;;;;;;;11.12;58.33;94625.13;5094573;28;1036;-53
2023/04/15 04:57:31;;;;;;;;;;;;;;;10.85;58.36;94629.97;5094310;28;1902;-53
2023/04/15 04:59:57;;;;;;;;;;;;;;;10.49;59.79;94642.97;5094019;28;1001;-54
2023/04/15 05:02:25;;;;;;;;;;;;;;;9.74;63.18;94636.13;5094391;28;1059;-54
2023/04/15 05:04:53;;;;;;;;;;;;;;;9.10;66.14;94638.59;5094414;28;957;-54
2023/04/15 05:07:20;;;;;;;;;;;;;;;8.79;68.14;94642.69;5094389;28;1039;-54
2023/04/15 05:09:46;;;;;;;;;;;;;;;8.52;68.91;94645.63;5094529;28;1035;-54
2023/04/15 05:12:13;;;;;;;;;;;;;;;8.36;70.92;94647.16;5094057;28;1089;-54
2023/04/15 05:14:40;;;;;;;;;;;;;;;8.44;70.60;94653.56;5094030;28;1116;-54
2023/04/15 05:17:07;;;;;;;;;;;;;;;8.57;69.80;94657.47;5094431;28;1905;-54
2023/04/15 05:19:33;;;;;;;;;;;;;;;8.59;70.37;94652.81;5094370;28;1028;-54
2023/04/15 05:21:59;;;;;;;;;;;;;;;8.90;68.93;94659.41;5094029;28;1057;-54
2023/04/15 05:24:26;;;;;;;;;;;;;;;9.33;67.97;94662.78;5093995;28;1053;-54
2023/04/15 05:26:52;;;;;;;;;;;;;;;9.36;66.75;94655.31;5093933;28;1108;-54
2023/04/15 05:29:18;;;;;;;;;;;;;;;9.43;67.23;94660.81;5093830;28;1025;-54
2023/04/15 05:31:44;;;;;;;;;;;;;;;9.52;66.33;94649.16;5093929;28;2012;-54
2023/04/15 05:34:11;;;;;;;;;;;;;;;9.55;66.19;94658.66;5093867;28;1041;-54
2023/04/15 05:36:37;;;;;;;;;;;;;;;9.62;66.48;94648.13;5093781;28;1992;-54
2023/04/15 05:39:03;;;;;;;;;;;;;;;9.69;65.78;94649.13;5093829;28;1045;-54
2023/04/15 05:41:29;;;;;;;;;;;;;;;9.70;64.85;94662.31;5092938;28;1617;-54
2023/04/15 05:47:41;;;;;;;;;;;;;;;10.00;65.34;94669.78;5033796;28;798;-53
2023/04/15 05:50:08;;;;;;;;;;;;;;;10.12;64.60;94671.13;5033463;28;1161;-54
2023/04/15 05:52:34;;;;;;;;;;;;;;;10.37;64.25;94657.72;5050016;28;1070;-55
2023/04/15 05:55:00;;;;;;;;;;;;;;;10.96;62.15;94671.50;5053328;28;998;-55
2023/04/15 05:57:26;;;;;;;;;;;;;;;10.94;61.46;94670.84;5053026;28;1985;-54
2023/04/15 05:59:52;;;;;;;;;;;;;;;10.77;61.21;94662.06;5053209;28;1085;-55
2023/04/15 06:02:19;;;;;;;;;;;;;;;11.06;61.23;94663.25;5053350;28;976;-55
2023/04/15 06:04:45;;;;;;;;;;;;;;;11.21;60.02;94672.22;5053229;28;1585;-55
2023/04/15 06:07:11;;;;;;;;;;;;;;;11.45;59.57;94673.88;5052993;28;1117;-55
2023/04/15 06:09:37;;;;;;;;;;;;;;;11.95;58.00;94676.22;5053106;28;1140;-55
2023/04/15 06:12:03;;;;;;;;;;;;;;;12.47;56.55;94683.41;5052185;28;1071;-55
2023/04/15 06:14:29;;;;;;;;;;;;;;;12.69;55.43;94673.59;5053335;28;1057;-55
2023/04/15 06:16:55;;;;;;;;;;;;;;;12.54;56.70;94673.63;5053190;28;1934;-56
2023/04/15 06:19:21;;;;;;;;;;;;;;;12.81;54.15;94690.06;5053079;28;1058;-56
2023/04/15 06:21:47;;;;;;;;;;;;;;;13.25;54.52;94698.03;5053259;28;1012;-56
2023/04/15 06:24:13;;;;;;;;;;;;;;;13.59;52.04;94704.66;5053030;28;1527;-56
2023/04/15 06:26:39;;;;;;;;;;;;;;;13.59;53.09;94706.50;5052499;28;1622;-55
2023/04/15 06:29:05;;;;;;;;;;;;;;;13.93;52.80;94691.56;5052992;28;1590;-56
2023/04/15 06:31:31;;;;;;;;;;;;;;;14.02;52.87;94685.84;5049048;28;1519;-56
2023/04/15 06:33:57;;;;;;;;;;;;;;;13.88;51.49;94694.81;5053002;28;1112;-56
2023/04/15 06:36:23;;;;;;;;;;;;;;;14.04;50.37;94693.72;5053017;28;1909;-56
2023/04/15 06:38:49;;;;;;;;;;;;;;;14.28;52.07;94691.63;5052883;28;1057;-56
2023/04/15 06:41:15;;;;;;;;;;;;;;;14.50;51.45;94705.88;5054984;28;1755;-56
2023/04/15 06:43:42;;;;;;;;;;;;;;;14.59;50.15;94704.72;5053031;28;1020;-55
2023/04/15 06:46:08;;;;;;;;;;;;;;;14.86;50.78;94703.03;5068417;28;1096;-55
2023/04/15 06:48:34;;;;;;;;;;;;;;;15.21;48.82;94711.06;5093175;28;980;-56
2023/04/15 06:51:00;;;;;;;;;;;;;;;15.13;49.61;94700.47;5091356;28;1533;-56
2023/04/15 06:53:29;;;;;;;;;;;;;;;15.18;50.03;94704.22;5074924;28;957;-56
2023/04/15 06:55:55;;;;;;;;;;;;;;;15.31;49.55;94698.06;5073013;28;1910;-56
2023/04/15 06:58:21;;;;;;;;;;;;;;;15.48;50.50;94698.53;5072529;28;1085;-56
2023/04/15 07:00:47;;;;;;;;;;;;;;;15.77;49.25;94694.69;5075656;28;1513;-56
2023/04/15 07:03:14;;;;;;;;;;;;;;;15.87;48.35;94680.81;5092871;28;980;-56
2023/04/15 07:05:40;;;;;;;;;;;;;;;16.24;48.73;94683.97;5092840;28;1582;-56
2023/04/15 07:08:06;;;;;;;;;;;;;;;16.33;47.98;94681.88;5092892;28;1517;-56
2023/04/15 07:10:33;;;;;;;;;;;;;;;16.56;47.22;94671.50;5092337;28;1507;-56
2023/04/15 07:12:59;;;;;;;;;;;;;;;16.97;45.50;94678.47;5086341;28;1981;-56
2023/04/15 07:15:25;;;;;;;;;;;;;;;16.96;46.14;94676.00;5085071;28;1864;-56
2023/04/15 07:17:51;;;;;;;;;;;;;;;17.37;46.02;94680.19;5088861;28;1535;-56
2023/04/15 07:20:18;;;;;;;;;;;;;;;17.30;44.54;94685.66;5092569;28;1247;-56
2023/04/15 07:22:43;;;;;;;;;;;;;;;17.36;43.63;94695.59;5090923;28;1917;-56
2023/04/15 07:25:10;;;;;;;;;;;;;;;17.84;43.42;94693.47;5096550;28;1028;-56
2023/04/15 07:27:36;;;;;;;;;;;;;;;18.32;44.68;94691.06;5096246;28;2019;-56
2023/04/15 07:30:03;;;;;;;;;;;;;;;18.65;44.04;94687.28;5096508;28;965;-56
2023/04/15 07:32:29;;;;;;;;;;;;;;;18.31;44.25;94688.63;5096143;28;1108;-56
2023/04/15 07:34:55;;;;;;;;;;;;;;;18.50;42.51;94693.03;5081810;28;1013;-56
2023/04/15 07:37:22;;;;;;;;;;;;;;;18.37;42.97;94686.91;5075744;28;1993;-56
2023/04/15 07:39:48;;;;;;;;;;;;;;;18.80;42.19;94699.63;5083569;28;1364;-56
2023/04/15 07:42:14;;;;;;;;;;;;;;;18.56;42.75;94699.44;5095965;28;1533;-56
2023/04/15 07:44:40;;;;;;;;;;;;;;;18.47;43.44;94692.63;5093871;28;1722;-56
2023/04/15 07:47:06;;;;;;;;;;;;;;;18.86;42.24;94706.91;5095390;28;1355;-56
2023/04/15 07:49:32;;;;;;;;;;;;;;;19.28;42.88;94704.38;5095296;28;1605;-56
2023/04/15 07:51:58;;;;;;;;;;;;;;;19.68;42.34;94712.03;5095784;28;1108;-56
2023/04/15 07:54:24;;;;;;;;;;;;;;;19.83;42.75;94706.22;5095702;28;1053;-56
2023/04/15 07:56:50;;;;;;;;;;;;;;;19.42;43.33;94702.31;5095346;28;1906;-56
2023/04/15 07:59:17;;;;;;;;;;;;;;;19.73;41.25;94714.06;5095550;28;1328;-56
2023/04/15 08:01:43;;;;;;;;;;;;;;;19.48;40.60;94707.69;5095826;28;1016;-56
2023/04/15 08:04:09;;;;;;;;;;;;;;;19.51;39.76;94700.97;5095559;28;1061;-56
2023/04/15 08:06:38;;;;;;;;;;;;;;;19.63;39.30;94709.16;5095536;28;973;-56
2023/04/15 08:09:05;;;;;;;;;;;;;;;20.14;40.39;94707.03;5095468;28;933;-56
2023/04/15 08:11:31;;;;;;;;;;;;;;;20.23;37.96;94711.91;5095282;28;1140;-57
2023/04/15 08:13:57;;;;;;;;;;;;;;;20.05;38.60;94704.66;5095601;28;989;-55
2023/04/15 08:16:24;;;;;;;;;;;;;;;20.21;37.30;94707.78;5095200;28;1910;-54
2023/04/15 08:18:51;;;;;;;;;;;;;;;20.04;37.53;94704.88;5095241;28;1025;-57
2023/04/15 08:21:18;;;;;;;;;;;;;;;20.02;38.11;94701.56;5095241;28;1053;-57
2023/04/15 08:23:44;;;;;;;;;;;;;;;19.91;37.22;94694.22;5095277;28;1035;-57
2023/04/15 08:26:11;;;;;;;;;;;;;;;20.82;35.89;94698.44;5095001;28;1112;-55
2023/04/15 08:28:38;;;;;;;;;;;;;;;21.36;35.23;94698.28;5095414;28;1415;-56
2023/04/15 08:31:05;;;;;;;;;;;;;;;21.42;32.93;94699.22;5095250;28;1051;-55
2023/04/15 08:33:30;;;;;;;;;;;;;;;20.91;34.60;94703.53;5094539;28;1043;-55
2023/04/15 08:35:57;;;;;;;;;;;;;;;20.74;35.22;94693.34;5094777;28;1975;-55
2023/04/15 08:38:23;;;;;;;;;;;;;;;20.92;34.75;94697.84;5094874;28;1052;-56
2023/04/15 08:40:49;;;;;;;;;;;;;;;20.79;34.90;94695.34;5095032;28;1110;-56
2023/04/15 08:43:26;;;;;;;;;;;;;;;20.58;35.83;94691.31;5094788;28;1061;-57
2023/04/15 08:45:53;;;;;;;;;;;;;;;20.04;34.84;94685.88;5094927;28;1278;-57
2023/04/15 08:48:20;;;;;;;;;;;;;;;19.87;35.82;94683.81;5094834;28;1091;-57
2023/04/15 08:50:46;;;;;;;;;;;;;;;19.28;35.30;94688.94;5094698;28;1115;-56
2023/04/15 08:53:13;;;;;;;;;;;;;;;18.76;37.87;94687.59;5094680;28;1153;-56
2023/04/15 08:55:44;;;;;;;;;;;;;;;18.69;35.21;94684.94;5094697;28;1989;-57
2023/04/15 08:58:11;;;;;;;;;;;;;;;18.76;36.70;94677.56;5094843;28;960;-57
2023/04/15 09:00:37;;;;;;;;;;;;;;;18.89;36.54;94691.03;5094671;28;957;-56
2023/04/15 09:03:05;;;;;;;;;;;;;;;19.30;35.13;94699.56;5094827;28;1040;-56
2023/04/15 09:05:32;;;;;;;;;;;;;;;20.47;34.87;94691.06;5094320;28;1329;-57
2023/04/15 09:07:58;;;;;;;;;;;;;;;21.26;33.34;94696.16;5094618;28;993;-58
2023/04/15 09:10:24;;;;;;;;;;;;;;;21.36;33.44;94695.56;5094233;28;1136;-58
2023/04/15 09:12:50;;;;;;;;;;;;;;;21.01;34.01;94692.88;5094357;28;1059;-58
2023/04/15 09:15:17;;;;;;;;;;;;;;;20.40;34.48;94684.91;5094223;28;1112;-56
2023/04/15 09:17:43;;;;;;;;;;;;;;;19.63;34.06;94682.84;5094407;28;1987;-57
2023/04/15 09:20:11;;;;;;;;;;;;;;;18.91;35.97;94680.81;5094171;28;1053;-57
2023/04/15 09:22:38;;;;;;;;;;;;;;;18.84;36.17;94671.09;5094409;28;1184;-57
2023/04/15 09:25:24;;;;;;;;;;;;;;;18.60;36.00;94675.47;5093102;28;1126;-57
2023/04/15 09:27:51;;;;;;;;;;;;;;;18.28;36.55;94662.81;5094448;28;1027;-55
2023/04/15 09:30:17;;;;;;;;;;;;;;;18.43;35.76;94670.59;5093967;28;1029;-57
2023/04/15 09:32:50;;;;;;;;;;;;;;;18.51;36.66;94659.47;5094287;28;1023;-57
2023/04/15 09:35:16;;;;;;;;;;;;;;;18.37;35.67;94655.25;5094135;28;980;-57
2023/04/15 09:37:42;;;;;;;;;;;;;;;18.09;36.63;94655.69;5094027;28;1914;-57
2023/04/15 09:40:08;;;;;;;;;;;;;;;18.05;36.55;94660.69;5093777;28;1037;-57
2023/04/15 09:42:36;;;;;;;;;;;;;;;17.81;36.70;94653.34;5093943;28;1355;-57
2023/04/15 09:45:10;;;;;;;;;;;;;;;18.01;36.65;94651.38;5093697;28;1054;-57
2023/04/15 09:47:36;;;;;;;;;;;;;;;17.88;36.04;94654.16;5093585;28;1310;-56
2023/04/15 09:50:02;;;;;;;;;;;;;;;17.99;36.84;94647.25;5093675;28;1054;-56
2023/04/15 09:52:29;;;;;;;;;;;;;;;18.26;35.68;94647.84;5093588;28;978;-57
2023/04/15 09:54:58;;;;;;;;;;;;;;;18.45;36.64;94651.44;5093680;28;1044;-57
2023/04/15 09:57:32;;;;;;;;;;;;;;;18.50;36.37;94644.31;5092499;28;1917;-57
2023/04/15 09:59:58;;;;;;;;;;;;;;;18.26;35.65;94645.97;5093544;28;1045;-58
2023/04/15 10:06:10;;;;;;;;;;;;;;;18.55;34.97;94654.44;4999906;28;1821;-57
2023/04/15 10:08:37;;;;;;;;;;;;;;;18.35;35.30;94660.06;5004807;28;1653;-57
2023/04/15 10:11:03;;;;;;;;;;;;;;;18.30;35.60;94643.66;5013489;28;1238;-56
2023/04/15 10:13:36;;;;;;;;;;;;;;;18.63;35.90;94640.66;5013395;28;1037;-56
2023/04/15 10:16:06;;;;;;;;;;;;;;;18.74;35.92;94636.34;5013773;28;1910;-56
2023/04/15 10:18:37;;;;;;;;;;;;;;;18.92;36.58;94639.09;5007521;28;1603;-56
2023/04/15 10:21:04;;;;;;;;;;;;;;;18.94;36.23;94640.78;5012678;28;1500;-56
2023/04/15 10:23:31;;;;;;;;;;;;;;;18.81;36.08;94639.84;5013628;28;1025;-57
2023/04/15 10:25:57;;;;;;;;;;;;;;;18.57;35.76;94638.00;5013419;28;1070;-56
2023/04/15 10:28:23;;;;;;;;;;;;;;;18.62;35.52;94644.38;5013369;28;1129;-56
2023/04/15 10:30:50;;;;;;;;;;;;;;;18.69;35.35;94644.34;5007946;28;2047;-57
2023/04/15 10:33:19;;;;;;;;;;;;;;;18.54;34.80;94642.81;5003058;28;1072;-57
2023/04/15 10:35:47;;;;;;;;;;;;;;;19.03;35.29;94644.84;4993930;28;1908;-56
2023/04/15 10:38:32;;;;;;;;;;;;;;;19.21;34.63;94641.28;5010448;28;1349;-57
2023/04/15 10:41:10;;;;;;;;;;;;;;;19.40;32.92;94648.34;5008512;28;1072;-57
2023/04/15 10:43:37;;;;;;;;;;;;;;;19.44;32.86;94646.00;5001984;28;1021;-58
2023/04/15 10:46:04;;;;;;;;;;;;;;;19.45;31.91;94644.94;5013177;28;1037;-57
2023/04/15 10:48:30;;;;;;;;;;;;;;;19.07;31.00;94652.28;5013286;28;1038;-57
2023/04/15 10:50:56;;;;;;;;;;;;;;;18.79;31.73;94649.22;5013131;28;1069;-56
2023/04/15 10:53:27;;;;;;;;;;;;;;;18.46;32.56;94640.38;5013395;28;1052;-56
2023/04/15 10:55:53;;;;;;;;;;;;;;;18.70;33.20;94624.31;5013441;28;1976;-57
2023/04/15 10:58:22;;;;;;;;;;;;;;;19.22;32.52;94630.22;5015687;28;1112;-57
2023/04/15 11:00:51;;;;;;;;;;;;;;;18.86;32.21;94634.59;5016914;28;1045;-56
2023/04/15 11:03:32;;;;;;;;;;;;;;;18.92;32.77;94636.41;5017010;28;1050;-55
2023/04/15 11:05:58;;;;;;;;;;;;;;;19.20;33.68;94632.34;5016722;28;1087;-56
2023/04/15 11:08:54;;;;;;;;;;;;;;;19.57;32.64;94637.69;5016870;28;998;-56
2023/04/15 11:11:20;;;;;;;;;;;;;;;19.51;33.20;94635.91;5005629;28;1598;-57
2023/04/15 11:13:50;;;;;;;;;;;;;;;19.43;32.41;94634.34;5011645;28;1044;-56
2023/04/15 11:16:17;;;;;;;;;;;;;;;19.21;33.73;94625.84;4997060;28;1910;-56
2023/04/15 11:18:52;;;;;;;;;;;;;;;19.12;33.61;94638.03;4996989;28;1046;-56
2023/04/15 11:21:18;;;;;;;;;;;;;;;19.01;32.28;94630.66;4996758;28;1078;-56
2023/04/15 11:23:47;;;;;;;;;;;;;;;19.00;32.94;94634.44;4996951;28;963;-56
2023/04/15 11:26:14;;;;;;;;;;;;;;;18.91;32.74;94642.88;4996999;28;1267;-56
2023/04/15 11:28:44;;;;;;;;;;;;;;;19.14;33.04;94637.81;4997087;28;1009;-56
2023/04/15 11:31:11;;;;;;;;;;;;;;;19.25;31.86;94643.28;4996755;28;1125;-56
2023/04/15 11:33:45;;;;;;;;;;;;;;;19.18;31.29;94642.56;4996928;28;1047;-56
2023/04/15 11:36:11;;;;;;;;;;;;;;;19.25;31.52;94646.00;4996495;28;1910;-56
2023/04/15 11:38:41;;;;;;;;;;;;;;;19.37;32.88;94635.25;4996509;28;1085;-56
2023/04/15 11:41:07;;;;;;;;;;;;;;;19.46;32.76;94638.47;4996863;28;1009;-56
2023/04/15 11:43:34;;;;;;;;;;;;;;;19.37;31.97;94631.69;4996433;28;1308;-56
2023/04/15 11:46:01;;;;;;;;;;;;;;;19.34;33.23;94635.69;4996476;28;1046;-56
2023/04/15 11:48:31;;;;;;;;;;;;;;;19.31;33.23;94633.44;4979065;28;1050;-56
2023/04/15 11:50:58;;;;;;;;;;;;;;;19.18;32.51;94641.72;5004676;28;2001;-56
2023/04/15 11:53:35;;;;;;;;;;;;;;;19.08;31.82;94647.69;4998607;28;1049;-56
2023/04/15 11:56:01;;;;;;;;;;;;;;;19.12;33.38;94640.75;4996550;28;1973;-56
2023/04/15 11:58:28;;;;;;;;;;;;;;;19.29;32.00;94643.69;5001525;28;1332;-56
2023/04/15 12:00:56;;;;;;;;;;;;;;;19.29;31.38;94641.81;4984932;28;993;-56
2023/04/15 12:03:22;;;;;;;;;;;;;;;19.43;33.14;94633.50;4996031;28;1037;-56
2023/04/15 12:06:03;;;;;;;;;;;;;;;19.35;32.85;94631.94;5006429;28;1961;-56
2023/04/15 12:08:47;;;;;;;;;;;;;;;19.42;32.88;94640.78;4999376;28;1031;-56
2023/04/15 12:11:17;;;;;;;;;;;;;;;19.52;31.38;94632.16;5010198;28;1635;-56
2023/04/15 12:13:45;;;;;;;;;;;;;;;19.64;31.46;94632.19;4998462;28;971;-56
2023/04/15 12:16:11;;;;;;;;;;;;;;;19.77;31.14;94636.59;5002430;28;1918;-56
2023/04/15 12:18:37;;;;;;;;;;;;;;;19.60;31.47;94631.00;5009550;28;1622;-55
2023/04/15 12:21:08;;;;;;;;;;;;;;;19.54;31.69;94630.03;4997650;28;1058;-56
2023/04/15 12:23:36;;;;;;;;;;;;;;;19.76;32.15;94621.41;4995948;28;1013;-56
2023/04/15 12:26:04;;;;;;;;;;;;;;;19.61;32.61;94628.03;4995987;28;1043;-56
2023/04/15 12:28:30;;;;;;;;;;;;;;;19.98;31.57;94633.38;5004832;28;2164;-57
2023/04/15 12:30:56;;;;;;;;;;;;;;;19.98;30.56;94644.22;4999666;28;2112;-57
2023/04/15 12:33:22;;;;;;;;;;;;;;;20.08;31.52;94641.75;4998202;28;1975;-57
2023/04/15 12:35:48;;;;;;;;;;;;;;;20.17;29.83;94638.72;5014963;28;1985;-55
2023/04/15 12:38:14;;;;;;;;;;;;;;;20.16;29.24;94648.75;5015171;28;1057;-57
2023/04/15 12:40:41;;;;;;;;;;;;;;;20.01;29.62;94646.47;4993248;28;1898;-56
2023/04/15 12:43:07;;;;;;;;;;;;;;;19.61;29.43;94629.91;4995381;28;1023;-55
2023/04/15 12:45:33;;;;;;;;;;;;;;;19.78;28.63;94638.25;5008216;28;1890;-56
2023/04/15 12:47:59;;;;;;;;;;;;;;;19.99;28.07;94637.72;5002299;28;2116;-56
2023/04/15 12:50:25;;;;;;;;;;;;;;;19.86;27.31;94646.91;5005190;28;1048;-56
2023/04/15 12:52:51;;;;;;;;;;;;;;;19.99;27.05;94654.00;5009341;28;1397;-56
2023/04/15 12:55:17;;;;;;;;;;;;;;;19.97;26.51;94656.13;5007423;28;1082;-56
2023/04/15 12:57:43;;;;;;;;;;;;;;;19.90;26.34;94660.84;5014509;28;1993;-56
2023/04/15 13:00:10;;;;;;;;;;;;;;;19.83;26.85;94657.41;4997243;28;1056;-56
2023/04/15 13:02:35;;;;;;;;;;;;;;;19.96;26.45;94654.50;5011009;28;1548;-56
2023/04/15 13:05:02;;;;;;;;;;;;;;;19.85;27.38;94663.41;5003818;28;1045;-56
2023/04/15 13:07:28;;;;;;;;;;;;;;;19.47;27.40;94657.22;5001285;28;1082;-56